sensor_id;sensor_type;location;lat;lon;timestamp;P1;durP1;ratioP1;P2;durP2;ratioP2
72949;SDS011;64868;45.710;9.590;2023-04-02T00:00:38;3.03;;;0.90;;
72949;SDS011;64868;45.710;9.590;2023-04-02T00:06:32;3.00;;;0.70;;
72949;SDS011;64868;45.710;9.590;2023-04-02T00:11:54;3.30;;;0.80;;
72949;SDS011;64868;45.710;9.590;2023-04-02T00:14:29;3.45;;;0.68;;
72949;SDS011;64868;45.710;9.590;2023-04-02T00:17:03;2.80;;;0.73;;
72949;SDS011;64868;45.710;9.590;2023-04-02T00:19:37;1.77;;;0.50;;
72949;SDS011;64868;45.710;9.590;2023-04-02T00:22:17;5.43;;;0.60;;
72949;SDS011;64868;45.710;9.590;2023-04-02T00:24:51;3.20;;;0.85;;
72949;SDS011;64868;45.710;9.590;2023-04-02T00:27:20;2.20;;;0.65;;
72949;SDS011;64868;45.710;9.590;2023-04-02T00:29:52;2.50;;;0.60;;
72949;SDS011;64868;45.710;9.590;2023-04-02T00:32:26;2.72;;;0.70;;
72949;SDS011;64868;45.710;9.590;2023-04-02T00:35:01;2.35;;;0.50;;
72949;SDS011;64868;45.710;9.590;2023-04-02T00:37:37;2.20;;;0.70;;
72949;SDS011;64868;45.710;9.590;2023-04-02T00:40:29;3.05;;;0.70;;
72949;SDS011;64868;45.710;9.590;2023-04-02T00:43:00;2.47;;;0.65;;
72949;SDS011;64868;45.710;9.590;2023-04-02T00:45:34;2.30;;;0.65;;
72949;SDS011;64868;45.710;9.590;2023-04-02T00:48:22;2.38;;;0.70;;
72949;SDS011;64868;45.710;9.590;2023-04-02T00:51:07;2.97;;;0.60;;
72949;SDS011;64868;45.710;9.590;2023-04-02T00:53:43;2.13;;;0.52;;
72949;SDS011;64868;45.710;9.590;2023-04-02T00:59:02;1.27;;;0.45;;
72949;SDS011;64868;45.710;9.590;2023-04-02T01:01:32;1.85;;;0.50;;
72949;SDS011;64868;45.710;9.590;2023-04-02T01:04:03;2.88;;;0.68;;
72949;SDS011;64868;45.710;9.590;2023-04-02T01:06:54;1.98;;;0.60;;
72949;SDS011;64868;45.710;9.590;2023-04-02T01:09:27;2.35;;;0.70;;
72949;SDS011;64868;45.710;9.590;2023-04-02T01:12:18;2.42;;;0.73;;
72949;SDS011;64868;45.710;9.590;2023-04-02T01:20:41;2.17;;;0.60;;
72949;SDS011;64868;45.710;9.590;2023-04-02T01:24:00;4.43;;;0.60;;
72949;SDS011;64868;45.710;9.590;2023-04-02T01:29:20;1.50;;;0.50;;
72949;SDS011;64868;45.710;9.590;2023-04-02T01:31:55;1.45;;;0.43;;
72949;SDS011;64868;45.710;9.590;2023-04-02T01:34:29;2.53;;;0.63;;
72949;SDS011;64868;45.710;9.590;2023-04-02T01:37:03;1.88;;;0.47;;
72949;SDS011;64868;45.710;9.590;2023-04-02T01:45:00;1.42;;;0.40;;
72949;SDS011;64868;45.710;9.590;2023-04-02T01:47:58;1.73;;;0.47;;
72949;SDS011;64868;45.710;9.590;2023-04-02T01:50:30;1.80;;;0.52;;
72949;SDS011;64868;45.710;9.590;2023-04-02T01:53:05;1.55;;;0.43;;
72949;SDS011;64868;45.710;9.590;2023-04-02T01:55:48;1.55;;;0.50;;
72949;SDS011;64868;45.710;9.590;2023-04-02T01:58:26;2.25;;;0.40;;
72949;SDS011;64868;45.710;9.590;2023-04-02T02:03:36;1.65;;;0.50;;
72949;SDS011;64868;45.710;9.590;2023-04-02T02:06:07;1.25;;;0.40;;
72949;SDS011;64868;45.710;9.590;2023-04-02T02:08:43;1.80;;;0.50;;
72949;SDS011;64868;45.710;9.590;2023-04-02T02:11:17;1.55;;;0.35;;
72949;SDS011;64868;45.710;9.590;2023-04-02T02:13:53;1.63;;;0.40;;
72949;SDS011;64868;45.710;9.590;2023-04-02T02:16:27;0.93;;;0.40;;
72949;SDS011;64868;45.710;9.590;2023-04-02T02:19:01;1.38;;;0.40;;
72949;SDS011;64868;45.710;9.590;2023-04-02T02:21:41;1.75;;;0.40;;
72949;SDS011;64868;45.710;9.590;2023-04-02T02:24:32;1.52;;;0.50;;
72949;SDS011;64868;45.710;9.590;2023-04-02T02:27:15;2.25;;;0.50;;
72949;SDS011;64868;45.710;9.590;2023-04-02T02:29:56;1.67;;;0.30;;
72949;SDS011;64868;45.710;9.590;2023-04-02T02:32:48;1.80;;;0.43;;
72949;SDS011;64868;45.710;9.590;2023-04-02T02:35:22;1.92;;;0.50;;
72949;SDS011;64868;45.710;9.590;2023-04-02T02:40:47;1.48;;;0.40;;
72949;SDS011;64868;45.710;9.590;2023-04-02T02:43:22;3.53;;;0.60;;
72949;SDS011;64868;45.710;9.590;2023-04-02T02:45:55;2.50;;;0.60;;
72949;SDS011;64868;45.710;9.590;2023-04-02T02:48:29;0.90;;;0.40;;
72949;SDS011;64868;45.710;9.590;2023-04-02T02:51:05;1.35;;;0.40;;
72949;SDS011;64868;45.710;9.590;2023-04-02T02:53:43;2.25;;;0.47;;
72949;SDS011;64868;45.710;9.590;2023-04-02T02:56:18;1.90;;;0.50;;
72949;SDS011;64868;45.710;9.590;2023-04-02T02:58:52;1.27;;;0.40;;
72949;SDS011;64868;45.710;9.590;2023-04-02T03:01:26;1.63;;;0.40;;
72949;SDS011;64868;45.710;9.590;2023-04-02T03:03:57;1.15;;;0.45;;
72949;SDS011;64868;45.710;9.590;2023-04-02T03:06:30;2.42;;;0.50;;
72949;SDS011;64868;45.710;9.590;2023-04-02T03:11:54;1.35;;;0.40;;
72949;SDS011;64868;45.710;9.590;2023-04-02T03:14:35;1.58;;;0.40;;
72949;SDS011;64868;45.710;9.590;2023-04-02T03:19:46;1.83;;;0.40;;
72949;SDS011;64868;45.710;9.590;2023-04-02T03:22:30;1.15;;;0.38;;
72949;SDS011;64868;45.710;9.590;2023-04-02T03:25:26;2.08;;;0.50;;
72949;SDS011;64868;45.710;9.590;2023-04-02T03:28:04;2.03;;;0.57;;
72949;SDS011;64868;45.710;9.590;2023-04-02T03:30:41;2.45;;;0.52;;
72949;SDS011;64868;45.710;9.590;2023-04-02T03:33:16;1.35;;;0.30;;
72949;SDS011;64868;45.710;9.590;2023-04-02T03:36:22;2.72;;;0.55;;
72949;SDS011;64868;45.710;9.590;2023-04-02T03:45:00;1.95;;;0.50;;
72949;SDS011;64868;45.710;9.590;2023-04-02T03:47:39;1.58;;;0.40;;
72949;SDS011;64868;45.710;9.590;2023-04-02T03:52:57;1.73;;;0.50;;
72949;SDS011;64868;45.710;9.590;2023-04-02T03:55:31;0.90;;;0.20;;
72949;SDS011;64868;45.710;9.590;2023-04-02T04:03:44;1.88;;;0.45;;
72949;SDS011;64868;45.710;9.590;2023-04-02T04:06:25;1.23;;;0.40;;
72949;SDS011;64868;45.710;9.590;2023-04-02T04:09:00;2.70;;;0.60;;
72949;SDS011;64868;45.710;9.590;2023-04-02T04:11:46;1.58;;;0.40;;
72949;SDS011;64868;45.710;9.590;2023-04-02T04:14:28;0.98;;;0.30;;
72949;SDS011;64868;45.710;9.590;2023-04-02T04:19:57;1.38;;;0.32;;
72949;SDS011;64868;45.710;9.590;2023-04-02T04:22:31;1.55;;;0.40;;
72949;SDS011;64868;45.710;9.590;2023-04-02T04:25:03;1.08;;;0.32;;
72949;SDS011;64868;45.710;9.590;2023-04-02T04:33:52;1.35;;;0.43;;
72949;SDS011;64868;45.710;9.590;2023-04-02T04:36:31;3.30;;;0.50;;
72949;SDS011;64868;45.710;9.590;2023-04-02T04:39:06;1.85;;;0.50;;
72949;SDS011;64868;45.710;9.590;2023-04-02T04:41:41;2.08;;;0.47;;
72949;SDS011;64868;45.710;9.590;2023-04-02T04:44:23;1.20;;;0.50;;
72949;SDS011;64868;45.710;9.590;2023-04-02T04:50:14;1.60;;;0.43;;
72949;SDS011;64868;45.710;9.590;2023-04-02T04:53:13;1.75;;;0.50;;
72949;SDS011;64868;45.710;9.590;2023-04-02T04:55:48;2.22;;;0.60;;
72949;SDS011;64868;45.710;9.590;2023-04-02T05:01:02;4.43;;;0.68;;
72949;SDS011;64868;45.710;9.590;2023-04-02T05:06:42;4.88;;;0.40;;
72949;SDS011;64868;45.710;9.590;2023-04-02T05:09:39;1.63;;;0.47;;
72949;SDS011;64868;45.710;9.590;2023-04-02T05:15:13;2.83;;;0.70;;
72949;SDS011;64868;45.710;9.590;2023-04-02T05:21:04;1.45;;;0.55;;
72949;SDS011;64868;45.710;9.590;2023-04-02T05:26:49;3.00;;;0.65;;
72949;SDS011;64868;45.710;9.590;2023-04-02T05:29:23;2.65;;;0.60;;
72949;SDS011;64868;45.710;9.590;2023-04-02T05:31:59;2.30;;;0.47;;
72949;SDS011;64868;45.710;9.590;2023-04-02T05:34:34;3.38;;;0.55;;
72949;SDS011;64868;45.710;9.590;2023-04-02T05:37:12;1.77;;;0.40;;
72949;SDS011;64868;45.710;9.590;2023-04-02T05:40:09;2.47;;;0.50;;
72949;SDS011;64868;45.710;9.590;2023-04-02T05:42:47;1.60;;;0.50;;
72949;SDS011;64868;45.710;9.590;2023-04-02T05:45:37;2.10;;;0.45;;
72949;SDS011;64868;45.710;9.590;2023-04-02T05:48:28;2.33;;;0.50;;
72949;SDS011;64868;45.710;9.590;2023-04-02T05:51:04;1.10;;;0.40;;
72949;SDS011;64868;45.710;9.590;2023-04-02T05:53:41;2.38;;;0.63;;
72949;SDS011;64868;45.710;9.590;2023-04-02T05:56:32;1.52;;;0.50;;
72949;SDS011;64868;45.710;9.590;2023-04-02T05:59:11;1.83;;;0.50;;
72949;SDS011;64868;45.710;9.590;2023-04-02T06:01:47;1.95;;;0.63;;
72949;SDS011;64868;45.710;9.590;2023-04-02T06:04:41;2.00;;;0.50;;
72949;SDS011;64868;45.710;9.590;2023-04-02T06:07:25;2.95;;;0.63;;
72949;SDS011;64868;45.710;9.590;2023-04-02T06:15:18;2.05;;;0.40;;
72949;SDS011;64868;45.710;9.590;2023-04-02T06:18:10;2.15;;;0.60;;
72949;SDS011;64868;45.710;9.590;2023-04-02T06:20:45;3.47;;;0.68;;
72949;SDS011;64868;45.710;9.590;2023-04-02T06:23:20;1.95;;;0.55;;
72949;SDS011;64868;45.710;9.590;2023-04-02T06:28:34;5.53;;;0.63;;
72949;SDS011;64868;45.710;9.590;2023-04-02T06:31:13;6.15;;;0.90;;
72949;SDS011;64868;45.710;9.590;2023-04-02T06:34:00;3.28;;;0.70;;
72949;SDS011;64868;45.710;9.590;2023-04-02T06:36:34;3.22;;;0.80;;
72949;SDS011;64868;45.710;9.590;2023-04-02T06:39:06;2.65;;;0.63;;
72949;SDS011;64868;45.710;9.590;2023-04-02T06:41:40;2.47;;;0.70;;
72949;SDS011;64868;45.710;9.590;2023-04-02T06:44:17;2.20;;;0.60;;
72949;SDS011;64868;45.710;9.590;2023-04-02T06:46:53;3.38;;;0.68;;
72949;SDS011;64868;45.710;9.590;2023-04-02T06:49:38;2.90;;;0.70;;
72949;SDS011;64868;45.710;9.590;2023-04-02T06:52:14;2.75;;;0.73;;
72949;SDS011;64868;45.710;9.590;2023-04-02T06:54:52;3.38;;;0.70;;
72949;SDS011;64868;45.710;9.590;2023-04-02T06:57:25;4.88;;;0.75;;
72949;SDS011;64868;45.710;9.590;2023-04-02T06:59:59;2.38;;;0.65;;
72949;SDS011;64868;45.710;9.590;2023-04-02T07:05:07;4.47;;;0.73;;
72949;SDS011;64868;45.710;9.590;2023-04-02T07:07:38;2.85;;;0.80;;
72949;SDS011;64868;45.710;9.590;2023-04-02T07:10:10;2.92;;;0.80;;
72949;SDS011;64868;45.710;9.590;2023-04-02T07:12:40;2.75;;;0.80;;
72949;SDS011;64868;45.710;9.590;2023-04-02T07:15:11;2.70;;;0.75;;
72949;SDS011;64868;45.710;9.590;2023-04-02T07:17:46;4.18;;;0.93;;
72949;SDS011;64868;45.710;9.590;2023-04-02T07:20:31;2.58;;;0.70;;
72949;SDS011;64868;45.710;9.590;2023-04-02T07:23:05;3.00;;;0.85;;
72949;SDS011;64868;45.710;9.590;2023-04-02T07:25:38;2.70;;;0.70;;
72949;SDS011;64868;45.710;9.590;2023-04-02T07:28:08;2.97;;;0.85;;
72949;SDS011;64868;45.710;9.590;2023-04-02T07:30:39;3.17;;;0.80;;
72949;SDS011;64868;45.710;9.590;2023-04-02T07:33:13;2.83;;;0.82;;
72949;SDS011;64868;45.710;9.590;2023-04-02T07:35:47;2.40;;;0.75;;
72949;SDS011;64868;45.710;9.590;2023-04-02T07:38:17;5.63;;;0.90;;
72949;SDS011;64868;45.710;9.590;2023-04-02T07:40:48;3.25;;;0.90;;
72949;SDS011;64868;45.710;9.590;2023-04-02T07:43:18;3.50;;;0.98;;
72949;SDS011;64868;45.710;9.590;2023-04-02T07:45:48;2.63;;;0.82;;
72949;SDS011;64868;45.710;9.590;2023-04-02T07:50:46;4.53;;;0.80;;
72949;SDS011;64868;45.710;9.590;2023-04-02T07:53:24;5.50;;;1.50;;
72949;SDS011;64868;45.710;9.590;2023-04-02T07:55:59;4.15;;;1.45;;
72949;SDS011;64868;45.710;9.590;2023-04-02T07:58:31;4.25;;;1.10;;
72949;SDS011;64868;45.710;9.590;2023-04-02T08:01:04;4.00;;;1.60;;
72949;SDS011;64868;45.710;9.590;2023-04-02T08:03:43;4.15;;;1.58;;
72949;SDS011;64868;45.710;9.590;2023-04-02T08:06:15;4.32;;;1.55;;
72949;SDS011;64868;45.710;9.590;2023-04-02T08:08:46;5.47;;;1.77;;
72949;SDS011;64868;45.710;9.590;2023-04-02T08:11:16;6.95;;;1.90;;
72949;SDS011;64868;45.710;9.590;2023-04-02T08:13:46;4.57;;;1.50;;
72949;SDS011;64868;45.710;9.590;2023-04-02T08:16:18;6.47;;;2.60;;
72949;SDS011;64868;45.710;9.590;2023-04-02T08:18:48;6.38;;;2.38;;
72949;SDS011;64868;45.710;9.590;2023-04-02T08:21:18;6.90;;;2.85;;
72949;SDS011;64868;45.710;9.590;2023-04-02T08:23:51;6.50;;;3.15;;
72949;SDS011;64868;45.710;9.590;2023-04-02T08:26:24;8.68;;;3.45;;
72949;SDS011;64868;45.710;9.590;2023-04-02T08:28:56;6.30;;;2.00;;
72949;SDS011;64868;45.710;9.590;2023-04-02T08:31:26;7.72;;;2.67;;
72949;SDS011;64868;45.710;9.590;2023-04-02T08:33:56;5.68;;;2.35;;
72949;SDS011;64868;45.710;9.590;2023-04-02T08:36:32;5.47;;;1.90;;
72949;SDS011;64868;45.710;9.590;2023-04-02T08:39:06;5.18;;;1.90;;
72949;SDS011;64868;45.710;9.590;2023-04-02T08:41:38;4.57;;;1.33;;
72949;SDS011;64868;45.710;9.590;2023-04-02T08:44:17;3.97;;;1.45;;
72949;SDS011;64868;45.710;9.590;2023-04-02T08:46:56;6.40;;;1.50;;
72949;SDS011;64868;45.710;9.590;2023-04-02T08:49:32;4.68;;;1.55;;
72949;SDS011;64868;45.710;9.590;2023-04-02T08:52:07;5.38;;;1.77;;
72949;SDS011;64868;45.710;9.590;2023-04-02T08:54:53;7.03;;;1.90;;
72949;SDS011;64868;45.710;9.590;2023-04-02T09:00:04;7.28;;;2.20;;
72949;SDS011;64868;45.710;9.590;2023-04-02T09:02:46;5.85;;;2.03;;
72949;SDS011;64868;45.710;9.590;2023-04-02T09:05:21;8.43;;;2.25;;
72949;SDS011;64868;45.710;9.590;2023-04-02T09:07:56;5.85;;;3.00;;
72949;SDS011;64868;45.710;9.590;2023-04-02T09:10:25;6.35;;;2.90;;
72949;SDS011;64868;45.710;9.590;2023-04-02T09:13:14;7.20;;;3.80;;
72949;SDS011;64868;45.710;9.590;2023-04-02T09:15:49;9.70;;;3.75;;
72949;SDS011;64868;45.710;9.590;2023-04-02T09:18:22;6.85;;;3.00;;
72949;SDS011;64868;45.710;9.590;2023-04-02T09:20:49;7.78;;;3.75;;
72949;SDS011;64868;45.710;9.590;2023-04-02T09:23:18;9.20;;;4.15;;
72949;SDS011;64868;45.710;9.590;2023-04-02T09:25:49;8.23;;;4.30;;
72949;SDS011;64868;45.710;9.590;2023-04-02T09:28:21;12.60;;;5.10;;
72949;SDS011;64868;45.710;9.590;2023-04-02T09:31:01;12.82;;;5.78;;
72949;SDS011;64868;45.710;9.590;2023-04-02T09:33:48;11.00;;;5.65;;
72949;SDS011;64868;45.710;9.590;2023-04-02T09:36:24;17.08;;;9.95;;
72949;SDS011;64868;45.710;9.590;2023-04-02T09:39:01;18.65;;;11.23;;
72949;SDS011;64868;45.710;9.590;2023-04-02T09:41:42;21.95;;;14.40;;
72949;SDS011;64868;45.710;9.590;2023-04-02T09:46:57;23.30;;;13.82;;
72949;SDS011;64868;45.710;9.590;2023-04-02T09:49:31;23.08;;;14.80;;
72949;SDS011;64868;45.710;9.590;2023-04-02T09:52:07;25.17;;;15.68;;
72949;SDS011;64868;45.710;9.590;2023-04-02T09:54:37;24.10;;;14.40;;
72949;SDS011;64868;45.710;9.590;2023-04-02T09:57:19;24.67;;;16.52;;
72949;SDS011;64868;45.710;9.590;2023-04-02T10:00:09;26.05;;;15.50;;
72949;SDS011;64868;45.710;9.590;2023-04-02T10:02:49;21.27;;;13.45;;
72949;SDS011;64868;45.710;9.590;2023-04-02T10:05:45;19.65;;;12.15;;
72949;SDS011;64868;45.710;9.590;2023-04-02T10:08:20;22.23;;;12.85;;
72949;SDS011;64868;45.710;9.590;2023-04-02T10:10:54;23.33;;;14.43;;
72949;SDS011;64868;45.710;9.590;2023-04-02T10:13:28;19.40;;;12.68;;
72949;SDS011;64868;45.710;9.590;2023-04-02T10:16:38;22.15;;;13.73;;
72949;SDS011;64868;45.710;9.590;2023-04-02T10:19:28;20.60;;;12.57;;
72949;SDS011;64868;45.710;9.590;2023-04-02T10:22:04;19.05;;;12.48;;
72949;SDS011;64868;45.710;9.590;2023-04-02T10:24:39;18.45;;;11.98;;
72949;SDS011;64868;45.710;9.590;2023-04-02T10:27:15;21.17;;;12.15;;
72949;SDS011;64868;45.710;9.590;2023-04-02T10:30:13;17.92;;;11.00;;
72949;SDS011;64868;45.710;9.590;2023-04-02T10:36:01;13.43;;;7.88;;
72949;SDS011;64868;45.710;9.590;2023-04-02T10:38:52;15.18;;;8.30;;
72949;SDS011;64868;45.710;9.590;2023-04-02T10:44:56;12.55;;;6.93;;
72949;SDS011;64868;45.710;9.590;2023-04-02T10:50:13;15.52;;;8.25;;
72949;SDS011;64868;45.710;9.590;2023-04-02T10:53:17;13.52;;;8.52;;
72949;SDS011;64868;45.710;9.590;2023-04-02T10:58:26;13.15;;;7.60;;
72949;SDS011;64868;45.710;9.590;2023-04-02T11:01:02;13.63;;;8.65;;
72949;SDS011;64868;45.710;9.590;2023-04-02T11:03:38;12.82;;;8.45;;
72949;SDS011;64868;45.710;9.590;2023-04-02T11:06:16;13.43;;;8.90;;
72949;SDS011;64868;45.710;9.590;2023-04-02T11:08:49;14.75;;;8.55;;
72949;SDS011;64868;45.710;9.590;2023-04-02T11:11:24;14.52;;;8.68;;
72949;SDS011;64868;45.710;9.590;2023-04-02T11:13:59;14.48;;;9.25;;
72949;SDS011;64868;45.710;9.590;2023-04-02T11:16:34;15.93;;;9.68;;
72949;SDS011;64868;45.710;9.590;2023-04-02T11:22:28;16.95;;;9.90;;
72949;SDS011;64868;45.710;9.590;2023-04-02T11:24:47;16.23;;;9.65;;
72949;SDS011;64868;45.710;9.590;2023-04-02T11:27:28;16.75;;;10.35;;
72949;SDS011;64868;45.710;9.590;2023-04-02T11:32:49;14.77;;;9.85;;
72949;SDS011;64868;45.710;9.590;2023-04-02T11:35:24;17.90;;;9.88;;
72949;SDS011;64868;45.710;9.590;2023-04-02T11:52:09;17.13;;;10.27;;
72949;SDS011;64868;45.710;9.590;2023-04-02T11:54:53;16.95;;;9.60;;
72949;SDS011;64868;45.710;9.590;2023-04-02T12:03:28;15.80;;;9.80;;
72949;SDS011;64868;45.710;9.590;2023-04-02T12:14:28;16.25;;;9.95;;
72949;SDS011;64868;45.710;9.590;2023-04-02T12:17:05;16.80;;;10.23;;
72949;SDS011;64868;45.710;9.590;2023-04-02T12:19:49;14.23;;;8.90;;
72949;SDS011;64868;45.710;9.590;2023-04-02T12:22:20;14.05;;;9.15;;
72949;SDS011;64868;45.710;9.590;2023-04-02T12:24:52;16.02;;;9.60;;
72949;SDS011;64868;45.710;9.590;2023-04-02T12:27:25;15.23;;;9.50;;
72949;SDS011;64868;45.710;9.590;2023-04-02T12:30:09;15.35;;;9.63;;
72949;SDS011;64868;45.710;9.590;2023-04-02T12:32:37;14.57;;;9.45;;
72949;SDS011;64868;45.710;9.590;2023-04-02T12:35:23;15.60;;;9.75;;
72949;SDS011;64868;45.710;9.590;2023-04-02T12:37:52;13.80;;;8.88;;
72949;SDS011;64868;45.710;9.590;2023-04-02T12:40:24;17.30;;;10.25;;
72949;SDS011;64868;45.710;9.590;2023-04-02T12:42:54;16.48;;;9.25;;
72949;SDS011;64868;45.710;9.590;2023-04-02T12:45:25;12.40;;;8.20;;
72949;SDS011;64868;45.710;9.590;2023-04-02T12:47:55;16.15;;;9.52;;
72949;SDS011;64868;45.710;9.590;2023-04-02T12:50:27;15.90;;;9.07;;
72949;SDS011;64868;45.710;9.590;2023-04-02T12:53:00;13.05;;;8.65;;
72949;SDS011;64868;45.710;9.590;2023-04-02T12:55:44;16.40;;;9.00;;
72949;SDS011;64868;45.710;9.590;2023-04-02T12:58:22;13.60;;;8.90;;
72949;SDS011;64868;45.710;9.590;2023-04-02T13:01:02;13.77;;;8.77;;
72949;SDS011;64868;45.710;9.590;2023-04-02T13:03:37;13.02;;;8.52;;
72949;SDS011;64868;45.710;9.590;2023-04-02T13:06:19;13.35;;;8.80;;
72949;SDS011;64868;45.710;9.590;2023-04-02T13:08:50;13.38;;;8.63;;
72949;SDS011;64868;45.710;9.590;2023-04-02T13:11:24;12.52;;;8.10;;
72949;SDS011;64868;45.710;9.590;2023-04-02T13:14:07;12.52;;;7.20;;
72949;SDS011;64868;45.710;9.590;2023-04-02T13:16:45;15.98;;;7.90;;
72949;SDS011;64868;45.710;9.590;2023-04-02T13:19:27;13.20;;;7.25;;
72949;SDS011;64868;45.710;9.590;2023-04-02T13:22:02;11.07;;;7.03;;
72949;SDS011;64868;45.710;9.590;2023-04-02T13:24:50;12.25;;;7.05;;
72949;SDS011;64868;45.710;9.590;2023-04-02T13:27:26;13.48;;;7.68;;
72949;SDS011;64868;45.710;9.590;2023-04-02T13:29:54;12.00;;;7.03;;
72949;SDS011;64868;45.710;9.590;2023-04-02T13:32:32;11.52;;;6.45;;
72949;SDS011;64868;45.710;9.590;2023-04-02T13:35:02;10.18;;;6.28;;
72949;SDS011;64868;45.710;9.590;2023-04-02T13:37:34;11.35;;;6.82;;
72949;SDS011;64868;45.710;9.590;2023-04-02T13:40:07;11.43;;;6.30;;
72949;SDS011;64868;45.710;9.590;2023-04-02T13:42:42;11.00;;;6.45;;
72949;SDS011;64868;45.710;9.590;2023-04-02T13:45:19;16.27;;;6.75;;
72949;SDS011;64868;45.710;9.590;2023-04-02T13:47:53;10.32;;;6.35;;
72949;SDS011;64868;45.710;9.590;2023-04-02T13:50:23;14.88;;;6.63;;
72949;SDS011;64868;45.710;9.590;2023-04-02T13:52:56;10.38;;;6.10;;
72949;SDS011;64868;45.710;9.590;2023-04-02T13:55:27;9.52;;;5.70;;
72949;SDS011;64868;45.710;9.590;2023-04-02T13:58:03;10.48;;;5.82;;
72949;SDS011;64868;45.710;9.590;2023-04-02T14:00:36;10.57;;;5.93;;
72949;SDS011;64868;45.710;9.590;2023-04-02T14:06:00;10.95;;;5.55;;
72949;SDS011;64868;45.710;9.590;2023-04-02T14:08:39;8.82;;;5.18;;
72949;SDS011;64868;45.710;9.590;2023-04-02T14:14:51;8.48;;;5.15;;
72949;SDS011;64868;45.710;9.590;2023-04-02T14:20:20;6.47;;;3.30;;
72949;SDS011;64868;45.710;9.590;2023-04-02T14:23:10;11.25;;;3.53;;
72949;SDS011;64868;45.710;9.590;2023-04-02T14:25:56;6.97;;;3.58;;
72949;SDS011;64868;45.710;9.590;2023-04-02T14:28:47;8.35;;;3.90;;
72949;SDS011;64868;45.710;9.590;2023-04-02T14:35:32;8.57;;;3.85;;
72949;SDS011;64868;45.710;9.590;2023-04-02T14:37:44;6.78;;;2.83;;
72949;SDS011;64868;45.710;9.590;2023-04-02T14:43:24;6.03;;;2.80;;
72949;SDS011;64868;45.710;9.590;2023-04-02T14:46:04;7.25;;;3.72;;
72949;SDS011;64868;45.710;9.590;2023-04-02T14:48:43;6.85;;;3.42;;
72949;SDS011;64868;45.710;9.590;2023-04-02T14:56:58;4.90;;;2.00;;
72949;SDS011;64868;45.710;9.590;2023-04-02T14:59:38;5.53;;;2.00;;
72949;SDS011;64868;45.710;9.590;2023-04-02T15:02:26;4.78;;;1.60;;
72949;SDS011;64868;45.710;9.590;2023-04-02T15:07:59;4.43;;;1.17;;
72949;SDS011;64868;45.710;9.590;2023-04-02T15:10:40;3.20;;;1.20;;
72949;SDS011;64868;45.710;9.590;2023-04-02T15:13:39;4.45;;;1.20;;
72949;SDS011;64868;45.710;9.590;2023-04-02T15:16:26;5.28;;;1.30;;
72949;SDS011;64868;45.710;9.590;2023-04-02T15:19:00;5.68;;;1.80;;
72949;SDS011;64868;45.710;9.590;2023-04-02T15:21:36;4.30;;;1.30;;
72949;SDS011;64868;45.710;9.590;2023-04-02T15:24:15;3.70;;;1.08;;
72949;SDS011;64868;45.710;9.590;2023-04-02T15:26:50;3.90;;;1.20;;
72949;SDS011;64868;45.710;9.590;2023-04-02T15:32:49;5.55;;;1.40;;
72949;SDS011;64868;45.710;9.590;2023-04-02T15:35:39;4.13;;;1.30;;
72949;SDS011;64868;45.710;9.590;2023-04-02T15:38:21;4.47;;;1.58;;
72949;SDS011;64868;45.710;9.590;2023-04-02T15:41:05;4.63;;;1.45;;
72949;SDS011;64868;45.710;9.590;2023-04-02T15:43:48;6.35;;;2.00;;
72949;SDS011;64868;45.710;9.590;2023-04-02T15:46:36;4.95;;;1.80;;
72949;SDS011;64868;45.710;9.590;2023-04-02T15:57:33;6.72;;;1.65;;
72949;SDS011;64868;45.710;9.590;2023-04-02T16:03:04;5.10;;;1.58;;
72949;SDS011;64868;45.710;9.590;2023-04-02T16:11:26;6.50;;;1.60;;
72949;SDS011;64868;45.710;9.590;2023-04-02T16:14:37;6.05;;;1.98;;
72949;SDS011;64868;45.710;9.590;2023-04-02T16:17:04;6.05;;;2.60;;
72949;SDS011;64868;45.710;9.590;2023-04-02T16:19:41;6.40;;;2.42;;
72949;SDS011;64868;45.710;9.590;2023-04-02T16:25:01;5.68;;;2.90;;
72949;SDS011;64868;45.710;9.590;2023-04-02T16:27:42;7.05;;;2.60;;
72949;SDS011;64868;45.710;9.590;2023-04-02T16:30:23;6.25;;;2.70;;
72949;SDS011;64868;45.710;9.590;2023-04-02T16:35:59;5.78;;;2.63;;
72949;SDS011;64868;45.710;9.590;2023-04-02T16:39:00;5.63;;;2.70;;
72949;SDS011;64868;45.710;9.590;2023-04-02T16:41:56;6.10;;;2.45;;
72949;SDS011;64868;45.710;9.590;2023-04-02T16:50:57;6.43;;;3.00;;
72949;SDS011;64868;45.710;9.590;2023-04-02T16:53:36;8.43;;;2.97;;
72949;SDS011;64868;45.710;9.590;2023-04-02T17:13:14;8.20;;;3.22;;
72949;SDS011;64868;45.710;9.590;2023-04-02T17:15:52;6.05;;;2.55;;
72949;SDS011;64868;45.710;9.590;2023-04-02T17:18:28;6.85;;;3.35;;
72949;SDS011;64868;45.710;9.590;2023-04-02T17:20:59;9.90;;;3.08;;
72949;SDS011;64868;45.710;9.590;2023-04-02T17:23:33;6.35;;;2.78;;
72949;SDS011;64868;45.710;9.590;2023-04-02T17:26:13;6.75;;;2.80;;
72949;SDS011;64868;45.710;9.590;2023-04-02T17:28:45;7.05;;;3.17;;
72949;SDS011;64868;45.710;9.590;2023-04-02T17:31:24;6.07;;;2.42;;
72949;SDS011;64868;45.710;9.590;2023-04-02T17:33:57;6.50;;;2.90;;
72949;SDS011;64868;45.710;9.590;2023-04-02T17:39:24;6.57;;;2.78;;
72949;SDS011;64868;45.710;9.590;2023-04-02T17:42:00;9.50;;;3.42;;
72949;SDS011;64868;45.710;9.590;2023-04-02T17:47:33;5.78;;;2.40;;
72949;SDS011;64868;45.710;9.590;2023-04-02T17:55:41;4.72;;;2.33;;
72949;SDS011;64868;45.710;9.590;2023-04-02T17:58:42;5.47;;;2.13;;
72949;SDS011;64868;45.710;9.590;2023-04-02T18:01:31;5.88;;;2.45;;
72949;SDS011;64868;45.710;9.590;2023-04-02T18:04:16;7.38;;;2.70;;
72949;SDS011;64868;45.710;9.590;2023-04-02T18:06:53;7.47;;;2.65;;
72949;SDS011;64868;45.710;9.590;2023-04-02T18:09:43;5.93;;;2.30;;
72949;SDS011;64868;45.710;9.590;2023-04-02T18:15:08;6.65;;;3.50;;
72949;SDS011;64868;45.710;9.590;2023-04-02T18:17:59;9.25;;;2.95;;
72949;SDS011;64868;45.710;9.590;2023-04-02T18:20:55;6.20;;;2.95;;
72949;SDS011;64868;45.710;9.590;2023-04-02T18:26:35;7.95;;;3.35;;
72949;SDS011;64868;45.710;9.590;2023-04-02T18:43:55;8.85;;;3.75;;
72949;SDS011;64868;45.710;9.590;2023-04-02T18:46:51;8.80;;;4.20;;
72949;SDS011;64868;45.710;9.590;2023-04-02T18:49:27;9.55;;;4.50;;
72949;SDS011;64868;45.710;9.590;2023-04-02T18:52:02;8.93;;;4.50;;
72949;SDS011;64868;45.710;9.590;2023-04-02T18:54:48;7.22;;;3.45;;
72949;SDS011;64868;45.710;9.590;2023-04-02T18:57:23;7.65;;;4.15;;
72949;SDS011;64868;45.710;9.590;2023-04-02T19:00:09;7.57;;;3.05;;
72949;SDS011;64868;45.710;9.590;2023-04-02T19:05:55;7.60;;;4.25;;
72949;SDS011;64868;45.710;9.590;2023-04-02T19:11:17;8.88;;;4.65;;
72949;SDS011;64868;45.710;9.590;2023-04-02T19:19:24;6.93;;;3.80;;
72949;SDS011;64868;45.710;9.590;2023-04-02T19:21:55;10.45;;;4.40;;
72949;SDS011;64868;45.710;9.590;2023-04-02T19:24:41;8.35;;;4.30;;
72949;SDS011;64868;45.710;9.590;2023-04-02T19:27:42;11.63;;;5.35;;
72949;SDS011;64868;45.710;9.590;2023-04-02T19:30:34;10.25;;;5.05;;
72949;SDS011;64868;45.710;9.590;2023-04-02T19:44:19;12.90;;;6.07;;
72949;SDS011;64868;45.710;9.590;2023-04-02T19:46:50;10.07;;;6.10;;
72949;SDS011;64868;45.710;9.590;2023-04-02T19:49:28;11.68;;;6.18;;
72949;SDS011;64868;45.710;9.590;2023-04-02T19:51:59;11.68;;;6.00;;
72949;SDS011;64868;45.710;9.590;2023-04-02T19:54:30;12.15;;;6.22;;
72949;SDS011;64868;45.710;9.590;2023-04-02T19:57:03;11.57;;;6.25;;
72949;SDS011;64868;45.710;9.590;2023-04-02T19:59:34;10.88;;;6.20;;
72949;SDS011;64868;45.710;9.590;2023-04-02T20:02:04;10.43;;;6.13;;
72949;SDS011;64868;45.710;9.590;2023-04-02T20:04:36;10.60;;;5.85;;
72949;SDS011;64868;45.710;9.590;2023-04-02T20:07:06;10.48;;;6.07;;
72949;SDS011;64868;45.710;9.590;2023-04-02T20:09:37;10.95;;;5.88;;
72949;SDS011;64868;45.710;9.590;2023-04-02T20:12:07;12.38;;;6.28;;
72949;SDS011;64868;45.710;9.590;2023-04-02T20:14:40;10.90;;;5.95;;